createdAt,value
2017-10-18T00:00:35.184Z,99.99
2017-10-18T00:01:35.182Z,99.99
2017-10-18T00:02:34.853Z,99.99
2017-10-18T00:03:35.173Z,99.99
2017-10-18T00:04:35.171Z,99.99
2017-10-18T00:05:35.167Z,99.99
2017-10-18T00:06:34.844Z,99.99
2017-10-18T00:07:35.650Z,99.99
2017-10-18T00:08:35.226Z,99.99
2017-10-18T00:09:34.836Z,99.99
2017-10-18T00:10:35.159Z,99.99
2017-10-18T00:11:34.843Z,99.99
2017-10-18T00:12:34.836Z,99.99
2017-10-18T00:13:35.156Z,99.99
2017-10-18T00:14:35.156Z,99.99
2017-10-18T00:15:35.153Z,99.99
2017-10-18T00:16:35.142Z,99.99
2017-10-18T00:17:35.138Z,99.99
2017-10-18T00:18:35.139Z,99.99
2017-10-18T00:19:35.141Z,99.99
2017-10-18T00:20:35.132Z,99.99
2017-10-18T00:21:35.130Z,99.99
2017-10-18T00:22:35.131Z,99.99
2017-10-18T00:23:35.132Z,99.99
2017-10-18T00:24:34.805Z,99.99
2017-10-18T00:25:35.119Z,99.99
2017-10-18T00:26:35.116Z,99.99
2017-10-18T00:27:35.112Z,99.99
2017-10-18T00:28:35.114Z,99.99
2017-10-18T00:29:35.361Z,99.99
2017-10-18T00:30:34.791Z,99.99
2017-10-18T00:31:34.787Z,99.99
2017-10-18T00:32:35.110Z,99.99
2017-10-18T00:33:35.111Z,99.99
2017-10-18T00:34:34.796Z,99.99
2017-10-18T00:35:35.098Z,99.99
2017-10-18T00:36:35.124Z,99.99
2017-10-18T00:37:35.091Z,99.99
2017-10-18T00:38:35.089Z,99.99
2017-10-18T00:39:34.772Z,99.99
2017-10-18T00:40:34.765Z,99.99
2017-10-18T00:41:35.080Z,99.99
2017-10-18T00:42:34.758Z,99.99
2017-10-18T00:43:34.754Z,99.99
2017-10-18T00:44:35.072Z,99.99
2017-10-18T00:45:35.071Z,99.99
2017-10-18T00:46:35.071Z,99.99
2017-10-18T00:47:35.075Z,99.99
2017-10-18T00:48:35.080Z,99.99
2017-10-18T00:49:34.755Z,99.99
2017-10-18T00:50:35.063Z,99.99
2017-10-18T00:51:35.078Z,99.99
2017-10-18T00:52:35.071Z,99.99
2017-10-18T00:53:35.060Z,99.99
2017-10-18T00:54:35.066Z,99.99
2017-10-18T00:55:35.044Z,99.99
2017-10-18T00:56:34.722Z,99.99
2017-10-18T00:57:35.041Z,99.99
2017-10-18T00:58:35.041Z,99.99
2017-10-18T00:59:39.348Z,99.99
2017-10-18T01:00:35.033Z,99.99
2017-10-18T01:01:34.712Z,99.99
2017-10-18T15:44:20.261Z,62.84
2017-10-18T15:45:01.599Z,62.84
2017-10-18T15:46:01.598Z,63.99
2017-10-18T15:47:01.276Z,64.63
2017-10-18T15:48:01.600Z,64.72
2017-10-18T15:49:01.600Z,64.92
2017-10-18T15:50:01.274Z,65.49
2017-10-18T15:51:01.610Z,65.94
2017-10-18T15:52:01.608Z,66.23
2017-10-18T15:53:01.286Z,66.52
2017-10-18T15:54:01.603Z,67.67
2017-10-18T15:55:01.602Z,67.29
2017-10-18T15:56:01.381Z,67.96
2017-10-18T15:57:01.291Z,69.01
2017-10-18T15:58:01.718Z,69.26
2017-10-18T15:59:01.289Z,70.03
2017-10-18T16:00:01.440Z,69.93
2017-10-18T16:01:01.630Z,70.23
2017-10-18T16:02:01.609Z,70.51
2017-10-18T16:03:01.633Z,70.57
2017-10-18T16:04:01.339Z,70.61
2017-10-18T16:05:01.290Z,70.96
2017-10-18T16:06:01.629Z,71.15
2017-10-18T16:07:01.296Z,71.44
2017-10-18T16:08:01.615Z,71.44
2017-10-18T16:09:01.295Z,71.92
2017-10-18T16:10:01.633Z,72.01
2017-10-18T16:11:01.631Z,71.72
2017-10-18T16:12:01.673Z,72.3
2017-10-18T16:13:01.302Z,72.3
2017-10-18T16:14:01.636Z,72.55
2017-10-18T16:15:01.636Z,73.03
2017-10-18T16:16:01.741Z,72.84
2017-10-18T16:17:01.308Z,73.22
2017-10-18T16:18:01.635Z,73.61
2017-10-18T16:19:01.637Z,73.41
2017-10-18T16:20:01.639Z,73.41
2017-10-18T16:21:01.638Z,73.61
2017-10-18T16:22:01.642Z,73.41
2017-10-18T16:23:01.306Z,73.99
2017-10-18T16:24:01.310Z,74.37
2017-10-18T16:25:01.306Z,74.08
2017-10-18T16:26:01.309Z,74.37
2017-10-18T16:27:01.651Z,74.43
2017-10-18T16:28:01.652Z,74.95
2017-10-18T16:29:01.309Z,75.1
2017-10-18T16:30:01.313Z,74.82
2017-10-18T16:31:01.314Z,74.91
2017-10-18T16:32:01.655Z,75.39
2017-10-18T16:33:01.655Z,75.48
2017-10-18T16:34:01.310Z,75.77
2017-10-18T16:35:01.653Z,75.58
2017-10-18T16:36:01.657Z,75.58
2017-10-18T16:37:01.312Z,75.2
2017-10-18T16:38:01.657Z,75.87
2017-10-18T16:39:01.655Z,75.87
2017-10-18T16:40:01.311Z,76.15
2017-10-18T16:41:01.658Z,75.96
2017-10-18T16:42:01.311Z,76.35
2017-10-18T16:43:01.656Z,76.82
2017-10-18T16:44:01.315Z,77.11
2017-10-18T16:45:04.991Z,77.36
2017-10-18T16:46:01.654Z,77.65
2017-10-18T16:47:01.660Z,77.65
2017-10-18T16:48:01.313Z,77.94
2017-10-18T16:49:01.664Z,77.94
2017-10-18T16:50:01.661Z,78.13
2017-10-18T16:51:01.658Z,78.13
2017-10-18T16:52:01.663Z,77.84
2017-10-18T16:53:01.635Z,77.84
2017-10-18T16:54:01.659Z,78.13
2017-10-18T16:55:01.313Z,77.65
2017-10-18T16:56:01.312Z,78.03
2017-10-18T16:57:01.658Z,78.13
2017-10-18T16:58:01.316Z,77.84
2017-10-18T16:59:01.313Z,78.22
2017-10-18T17:00:01.637Z,78.7
2017-10-18T17:01:01.664Z,78.42
2017-10-18T17:02:01.633Z,78.42
2017-10-18T17:03:01.637Z,78.89
2017-10-18T17:04:01.665Z,78.8
2017-10-18T17:05:01.668Z,78.95
2017-10-18T17:06:01.636Z,79.43
2017-10-18T17:07:01.665Z,79.37
2017-10-18T17:08:01.643Z,79.62
2017-10-18T17:09:01.319Z,79.91
2017-10-18T17:10:01.641Z,80.1
2017-10-18T17:11:01.342Z,80.1
2017-10-18T17:12:01.316Z,80.58
2017-10-18T17:13:01.319Z,80.77
2017-10-18T17:14:01.318Z,80.58
2017-10-18T17:15:01.641Z,81.25
2017-10-18T17:16:04.343Z,81.34
2017-10-18T17:17:01.647Z,81.73
2017-10-18T17:18:01.673Z,81.54
2017-10-18T17:19:01.646Z,82.01
2017-10-18T17:20:01.322Z,82.01
2017-10-18T17:21:01.311Z,82.07
2017-10-18T17:22:01.652Z,82.4
2017-10-18T17:23:01.329Z,82.64
2017-10-18T17:24:01.309Z,82.64
2017-10-18T17:25:01.627Z,83.03
2017-10-18T17:26:01.629Z,82.93
2017-10-18T17:27:01.637Z,83.03
2017-10-18T17:28:01.306Z,83.69
2017-10-18T17:29:01.626Z,83.31
2017-10-18T17:30:01.309Z,83.79
2017-10-18T17:31:01.626Z,83.79
2017-10-18T17:32:01.634Z,84.08
2017-10-18T17:33:01.628Z,84.27
2017-10-18T17:34:01.633Z,84.36
2017-10-18T17:35:01.624Z,85.22
2017-10-18T17:36:01.629Z,85.61
2017-10-18T17:37:01.629Z,85.51
2017-10-18T17:38:01.310Z,85.99
2017-10-18T17:39:01.626Z,85.75
2017-10-18T17:40:01.636Z,85.75
2017-10-18T17:41:01.687Z,85.66
2017-10-18T17:42:01.644Z,86.23
2017-10-18T17:43:01.633Z,86.43
2017-10-18T17:44:01.315Z,86.33
2017-10-18T17:45:01.632Z,86.33
2017-10-18T17:46:05.832Z,86.23
2017-10-18T17:47:01.616Z,86.23
2017-10-18T17:48:01.615Z,86.61
2017-10-18T17:49:01.295Z,86.8
2017-10-18T17:50:01.626Z,87.29
2017-10-18T17:51:01.300Z,87.66
2017-10-18T17:52:01.935Z,87.76
2017-10-18T17:53:01.621Z,88.15
2017-10-18T17:54:01.612Z,88.24
2017-10-18T17:55:01.635Z,88.43
2017-10-18T17:56:01.621Z,88.72
2017-10-18T17:57:01.301Z,88.43
2017-10-18T17:58:01.632Z,88.91
2017-10-18T17:59:01.645Z,89.01
2017-10-18T18:00:01.612Z,89.2
2017-10-18T18:01:01.608Z,88.53
2017-10-18T18:02:01.288Z,89.01
2017-10-18T18:03:01.607Z,88.62
2017-10-18T18:04:01.296Z,89.2
2017-10-18T18:05:01.284Z,89.01
2017-10-18T18:06:01.291Z,88.72
2017-10-18T18:07:01.607Z,88.91
2017-10-18T18:08:01.288Z,88.81
2017-10-18T18:09:01.302Z,89.2
2017-10-18T18:10:01.297Z,89.15
2017-10-18T18:11:01.613Z,89.77
2017-10-18T18:12:01.280Z,89.53
2017-10-18T18:13:01.283Z,90.11
2017-10-18T18:14:01.278Z,89.73
2017-10-18T18:15:01.276Z,90.59
2017-10-18T18:16:01.596Z,90.2
2017-10-18T18:17:01.640Z,90.2
2017-10-18T18:18:01.270Z,90.88
2017-10-18T18:19:01.593Z,90.49
2017-10-18T18:20:01.589Z,91.06
2017-10-18T18:21:01.270Z,90.97
2017-10-18T18:22:01.588Z,91.35
2017-10-18T18:23:01.266Z,91.74
2017-10-18T18:24:01.589Z,91.93
2017-10-18T18:25:01.586Z,91.64
2017-10-18T18:26:01.586Z,91.64
2017-10-18T18:27:01.593Z,91.54
2017-10-18T18:28:01.606Z,91.54
2017-10-18T18:29:01.267Z,91.74
2017-10-18T18:30:01.578Z,91.74
2017-10-18T18:31:01.258Z,91.74
2017-10-18T18:32:01.262Z,91.74
2017-10-18T18:33:01.575Z,91.83
2017-10-18T18:34:01.603Z,91.45
2017-10-18T18:35:01.254Z,91.74
2017-10-18T18:36:01.252Z,91.93
2017-10-18T18:37:01.401Z,91.16
2017-10-18T18:38:01.581Z,90.97
2017-10-18T18:39:01.259Z,91.16
2017-10-18T18:40:01.718Z,91.45
2017-10-18T18:41:01.565Z,90.97
2017-10-18T18:42:01.248Z,91.74
2017-10-18T18:43:01.241Z,91.54
2017-10-18T18:44:01.240Z,91.83
2017-10-18T18:45:01.557Z,92.02
2017-10-18T18:46:01.573Z,91.64
2017-10-18T18:47:05.554Z,91.74
2017-10-18T18:48:01.235Z,91.83
2017-10-18T18:49:01.233Z,91.74
2017-10-18T18:50:01.555Z,91.83
2017-10-18T18:51:01.572Z,91.74
2017-10-18T18:52:01.235Z,91.64
2017-10-18T18:53:01.553Z,92.21
2017-10-18T18:54:01.551Z,92.3
2017-10-18T18:55:01.230Z,92.21
2017-10-18T18:56:01.563Z,92.79
2017-10-18T18:57:01.226Z,92.59
2017-10-18T18:58:01.547Z,92.26
2017-10-18T18:59:01.542Z,92.55
2017-10-18T19:00:01.219Z,92.93
2017-10-18T19:01:01.219Z,93.45
2017-10-18T19:02:01.539Z,93.12
2017-10-18T19:03:01.221Z,93.31
2017-10-18T19:04:01.537Z,93.79
2017-10-18T19:05:01.217Z,94.27
2017-10-18T19:06:01.210Z,93.98
2017-10-18T19:07:01.529Z,93.88
2017-10-18T19:08:01.528Z,94.36
2017-10-18T19:09:01.527Z,94.27
2017-10-18T19:10:01.526Z,95.12
2017-10-18T19:11:01.527Z,95.12
2017-10-18T19:12:01.525Z,95.51
2017-10-18T19:13:01.203Z,95.32
2017-10-18T19:14:01.525Z,95.7
2017-10-18T19:15:01.520Z,95.7
2017-10-18T19:16:01.528Z,95.98
2017-10-18T19:17:01.197Z,96.37
2017-10-18T19:18:01.518Z,95.79
2017-10-18T19:19:01.194Z,96.75
2017-10-18T19:20:01.188Z,96.7
2017-10-18T19:21:01.511Z,97.47
2017-10-18T19:22:01.510Z,97.85
2017-10-18T19:23:01.517Z,98.13
2017-10-18T19:24:01.520Z,98.03
2017-10-18T19:25:01.194Z,98.32
2017-10-18T19:26:01.185Z,98.23
2017-10-18T19:27:01.178Z,97.75
2017-10-18T19:28:01.497Z,97.47
2017-10-18T19:29:01.175Z,97.47
2017-10-18T19:30:01.174Z,98.13
2017-10-18T19:31:01.175Z,98.03
2017-10-18T19:32:01.173Z,97.85
2017-10-18T19:33:01.541Z,97.85
2017-10-18T19:34:01.491Z,98.03
2017-10-18T19:35:01.495Z,98.23
2017-10-18T19:36:01.486Z,98.8
2017-10-18T19:37:01.494Z,99.28
2017-10-18T19:38:01.168Z,98.8
2017-10-18T19:39:01.156Z,98.71
2017-10-18T19:40:01.495Z,98.71
2017-10-18T19:41:01.492Z,98.8
2017-10-18T19:42:01.483Z,98.71
2017-10-18T19:43:01.525Z,98.8
2017-10-18T19:44:01.158Z,99.08
2017-10-18T19:45:01.472Z,99.04
2017-10-18T19:46:01.545Z,99.52
2017-10-18T19:47:01.218Z,99.23
2017-10-18T19:48:01.456Z,99.32
2017-10-18T19:49:01.474Z,99.8
2017-10-18T19:50:01.150Z,99.42
2017-10-18T19:51:01.139Z,99.52
2017-10-18T19:52:01.133Z,99.99
2017-10-18T19:53:01.459Z,99.99
2017-10-18T19:54:01.132Z,99.99
2017-10-18T19:55:01.451Z,99.99
2017-10-18T19:56:01.129Z,99.99
2017-10-18T19:57:01.140Z,99.99
2017-10-18T19:58:01.456Z,99.99
2017-10-18T19:59:01.462Z,99.99
2017-10-18T20:00:01.449Z,99.99
2017-10-18T20:01:01.444Z,99.99
2017-10-18T20:02:01.444Z,99.99
2017-10-18T20:03:01.490Z,99.99
2017-10-18T20:04:01.432Z,99.99
2017-10-18T20:05:01.442Z,99.99
2017-10-18T20:06:01.110Z,99.99
2017-10-18T20:07:01.432Z,99.99
2017-10-18T20:08:01.115Z,99.99
2017-10-18T20:09:01.430Z,99.99
2017-10-18T20:10:01.108Z,99.99
2017-10-18T20:11:01.446Z,99.99
2017-10-18T20:12:01.097Z,99.99
2017-10-18T20:13:01.423Z,99.99
2017-10-18T20:14:01.410Z,99.99
2017-10-18T20:15:01.428Z,99.99
2017-10-18T20:16:01.407Z,99.99
2017-10-18T20:17:01.087Z,99.99
2017-10-18T20:18:01.085Z,99.99
2017-10-18T20:19:01.403Z,99.99
2017-10-18T20:20:01.082Z,99.99
2017-10-18T20:21:01.078Z,99.99
2017-10-18T20:22:01.077Z,99.99
2017-10-18T20:23:01.089Z,99.99
2017-10-18T20:24:01.069Z,99.99
2017-10-18T20:25:01.392Z,99.99
2017-10-18T20:26:01.451Z,99.99
2017-10-18T20:27:01.400Z,99.99
2017-10-18T20:28:01.388Z,99.99
2017-10-18T20:29:01.438Z,99.99
2017-10-18T20:30:01.927Z,99.99
2017-10-18T20:31:01.062Z,99.99
2017-10-18T20:32:01.377Z,99.99
2017-10-18T20:33:01.072Z,99.99
2017-10-18T20:34:01.427Z,99.99
2017-10-18T20:35:01.365Z,99.99
2017-10-18T20:36:01.375Z,99.99
2017-10-18T20:37:01.059Z,99.99
2017-10-18T20:38:01.359Z,99.99
2017-10-18T20:39:01.408Z,99.99
2017-10-18T20:40:01.358Z,99.99
2017-10-18T20:41:01.040Z,99.99
2017-10-18T20:42:01.066Z,99.99
2017-10-18T20:43:01.351Z,99.99
2017-10-18T20:44:01.356Z,99.99
2017-10-18T20:45:01.028Z,99.99
2017-10-18T20:46:01.354Z,99.99
2017-10-18T20:47:01.341Z,99.99
2017-10-18T20:48:01.364Z,99.99
2017-10-18T20:49:02.600Z,99.99
2017-10-18T20:50:01.022Z,99.99
2017-10-18T20:51:01.332Z,99.99
2017-10-18T20:52:01.058Z,99.99
2017-10-18T20:53:01.327Z,99.99
2017-10-18T20:54:01.005Z,99.99
2017-10-18T20:55:01.003Z,99.99
2017-10-18T20:56:01.323Z,99.99
2017-10-18T20:57:01.002Z,99.99
2017-10-18T20:58:01.329Z,99.99
2017-10-18T20:59:01.333Z,99.99
2017-10-18T21:00:01.317Z,99.99
2017-10-18T21:01:01.308Z,99.99
2017-10-18T21:02:01.312Z,99.99
2017-10-18T21:03:01.301Z,99.99
2017-10-18T21:04:01.303Z,99.99
2017-10-18T21:05:00.982Z,99.99
2017-10-18T21:06:01.301Z,99.99
2017-10-18T21:07:01.311Z,99.99
2017-10-18T21:08:01.301Z,99.99
2017-10-18T21:09:00.967Z,99.99
2017-10-18T21:10:00.968Z,99.99
2017-10-18T21:11:01.285Z,99.99
2017-10-18T21:12:01.283Z,99.99
2017-10-18T21:13:00.958Z,99.99
2017-10-18T21:14:01.288Z,99.99
2017-10-18T21:15:01.281Z,99.99
2017-10-18T21:16:01.272Z,99.99
2017-10-18T21:17:00.950Z,99.99
2017-10-18T21:18:01.272Z,99.99
2017-10-18T21:19:01.275Z,99.99
2017-10-18T21:20:01.266Z,99.99
2017-10-18T21:21:01.260Z,99.99
2017-10-18T21:22:01.264Z,99.99
2017-10-18T21:23:00.940Z,99.99
2017-10-18T21:24:00.933Z,99.99
2017-10-18T21:25:01.250Z,99.99
2017-10-18T21:26:01.324Z,99.99
2017-10-18T21:27:01.254Z,99.99
2017-10-18T21:28:00.925Z,99.99
2017-10-18T21:29:01.239Z,99.99
2017-10-18T21:30:00.917Z,99.99
2017-10-18T21:31:01.245Z,99.99
2017-10-18T21:32:01.257Z,99.99
2017-10-18T21:33:01.238Z,99.99
2017-10-18T21:34:01.232Z,99.99
2017-10-18T21:35:01.229Z,99.99
2017-10-18T21:36:01.222Z,99.99
2017-10-18T21:37:01.226Z,99.99
2017-10-18T21:38:01.223Z,99.99
2017-10-18T21:39:01.217Z,99.99
2017-10-18T21:40:00.903Z,99.99
2017-10-18T21:41:00.891Z,99.99
2017-10-18T21:42:01.214Z,99.99
2017-10-18T21:43:01.216Z,99.99
2017-10-18T21:44:01.215Z,99.99
2017-10-18T21:45:00.892Z,99.99
2017-10-18T21:46:00.887Z,99.99
2017-10-18T21:47:01.196Z,99.99
2017-10-18T21:48:01.195Z,99.99
2017-10-18T21:49:01.197Z,99.99
2017-10-18T21:50:01.197Z,99.99
2017-10-18T21:51:01.185Z,99.99
2017-10-18T21:52:01.188Z,99.99
2017-10-18T21:53:01.185Z,99.99
2017-10-18T21:54:00.875Z,99.99
2017-10-18T21:55:00.854Z,99.99
2017-10-18T21:56:01.183Z,99.99
2017-10-18T21:57:01.180Z,99.99
2017-10-18T21:58:01.195Z,99.99
2017-10-18T21:59:00.849Z,99.99
2017-10-18T22:00:01.204Z,99.99
2017-10-18T22:01:01.160Z,99.99
2017-10-18T22:02:00.834Z,99.99
2017-10-18T22:03:01.164Z,99.99
2017-10-18T22:04:00.831Z,99.99
2017-10-18T22:05:01.147Z,99.99
2017-10-18T22:06:01.150Z,99.99
2017-10-18T22:07:01.146Z,99.99
2017-10-18T22:08:01.140Z,99.99
2017-10-18T22:09:01.137Z,99.99
2017-10-18T22:10:00.855Z,99.99
2017-10-18T22:11:00.819Z,99.99
2017-10-18T22:12:01.132Z,99.99
2017-10-18T22:13:00.809Z,99.99
2017-10-18T22:14:01.124Z,99.99
2017-10-18T22:15:01.124Z,99.99
2017-10-18T22:16:00.801Z,99.99
2017-10-18T22:17:01.125Z,99.99
2017-10-18T22:18:00.793Z,99.99
2017-10-18T22:19:00.789Z,99.99
2017-10-18T22:20:02.311Z,99.99
2017-10-18T22:21:00.785Z,99.99
2017-10-18T22:22:01.107Z,99.99
2017-10-18T22:23:01.102Z,99.99
2017-10-18T22:24:00.778Z,99.99
2017-10-18T22:25:01.092Z,99.99
2017-10-18T22:26:00.771Z,99.99
2017-10-18T22:27:01.089Z,99.99
2017-10-18T22:28:01.087Z,99.99
2017-10-18T22:29:00.780Z,99.99
2017-10-18T22:59:51.982Z,99.99
2017-10-18T23:00:51.476Z,99.99
2017-10-18T23:01:51.711Z,99.99
2017-10-18T23:02:51.699Z,99.99
2017-10-18T23:03:51.694Z,99.99
2017-10-18T23:04:51.690Z,99.99
2017-10-18T23:05:51.720Z,99.99
2017-10-18T23:06:51.362Z,99.99
2017-10-18T23:07:51.666Z,99.99
2017-10-18T23:08:51.344Z,99.99
2017-10-18T23:09:51.336Z,99.99
2017-10-18T23:10:51.717Z,99.99
2017-10-18T23:11:51.647Z,99.99
2017-10-18T23:12:51.326Z,99.99
2017-10-18T23:13:51.328Z,99.99
2017-10-18T23:14:51.328Z,99.99
2017-10-18T23:15:51.743Z,99.99
2017-10-18T23:16:51.635Z,99.99
2017-10-18T23:17:51.634Z,99.99
2017-10-18T23:18:51.633Z,99.99
2017-10-18T23:19:51.300Z,99.99
2017-10-18T23:20:51.632Z,99.99
2017-10-18T23:21:51.616Z,99.99
2017-10-18T23:22:51.602Z,99.99
2017-10-18T23:23:51.294Z,99.99
2017-10-18T23:24:51.609Z,99.99
2017-10-18T23:25:51.346Z,99.99
2017-10-18T23:26:51.593Z,99.99
2017-10-18T23:27:51.277Z,99.99
2017-10-18T23:28:51.585Z,99.99
2017-10-18T23:29:51.584Z,99.99
2017-10-18T23:30:51.260Z,99.99
2017-10-18T23:31:51.270Z,99.99
2017-10-18T23:32:51.264Z,99.99
2017-10-18T23:33:51.586Z,99.99
2017-10-18T23:34:51.579Z,99.99
2017-10-18T23:35:51.566Z,99.99
2017-10-18T23:36:51.561Z,99.99
2017-10-18T23:37:51.560Z,99.99
2017-10-18T23:38:51.554Z,99.99
2017-10-18T23:39:51.566Z,99.99
2017-10-18T23:40:51.230Z,99.99
2017-10-18T23:41:51.550Z,99.99
2017-10-18T23:42:51.227Z,99.99
2017-10-18T23:43:51.541Z,99.99
2017-10-18T23:44:51.218Z,99.99
2017-10-18T23:45:51.216Z,99.99
2017-10-18T23:46:51.216Z,99.99
2017-10-18T23:47:51.213Z,99.99
2017-10-18T23:48:51.527Z,99.99
2017-10-18T23:49:51.530Z,99.99
2017-10-18T23:50:51.244Z,99.99
2017-10-18T23:51:51.201Z,99.99
2017-10-18T23:52:51.523Z,99.99
2017-10-18T23:53:51.516Z,99.99
2017-10-18T23:54:51.512Z,99.99
2017-10-18T23:55:51.197Z,99.99
2017-10-18T23:56:51.508Z,99.99
2017-10-18T23:57:51.180Z,99.99
2017-10-18T23:58:51.177Z,99.99
2017-10-18T23:59:51.497Z,99.99
